Time;durP1;ratioP1;P1;durP2;ratioP2;P2;SDS_P1;SDS_P2;PMS_P1;PMS_P2;Temp;Humidity;BMP_temperature;BMP_pressure;BME280_temperature;BME280_humidity;BME280_pressure;Samples;Min_cycle;Max_cycle;Signal;HPM_P1;HPM_P2
2022/10/10 00:01:44;;;;;;;13.27;5.60;;;9.60;99.90;;;;;;5134364;27;20247;-55
2022/10/10 00:04:10;;;;;;;23.55;8.65;;;9.60;99.90;;;;;;5134084;27;20198;-56
2022/10/10 00:06:35;;;;;;;14.55;6.65;;;9.60;99.90;;;;;;5133658;27;20161;-55
2022/10/10 00:09:02;;;;;;;17.88;6.10;;;9.60;99.90;;;;;;5133799;27;20611;-55
2022/10/10 00:11:29;;;;;;;11.60;5.47;;;9.60;99.90;;;;;;5134121;27;20443;-55
2022/10/10 00:13:55;;;;;;;13.82;5.65;;;9.60;99.90;;;;;;5133689;27;20308;-55
2022/10/10 00:16:20;;;;;;;24.45;7.32;;;9.60;99.90;;;;;;5132454;27;20262;-55
2022/10/10 00:18:46;;;;;;;18.27;7.20;;;9.60;99.90;;;;;;5134041;27;20164;-55
2022/10/10 00:21:12;;;;;;;26.27;8.30;;;9.50;99.90;;;;;;5133390;27;20164;-56
2022/10/10 00:23:38;;;;;;;24.15;8.23;;;9.50;99.90;;;;;;5133997;27;20172;-56
2022/10/10 00:26:05;;;;;;;31.15;9.02;;;9.50;99.90;;;;;;5133602;27;20167;-55
2022/10/10 00:28:31;;;;;;;19.48;7.57;;;9.50;99.90;;;;;;5133754;27;20204;-56
2022/10/10 00:30:57;;;;;;;13.07;5.90;;;9.50;99.90;;;;;;5133738;27;20235;-56
2022/10/10 00:33:22;;;;;;;13.60;5.95;;;9.50;99.90;;;;;;5133478;27;20648;-56
2022/10/10 00:35:48;;;;;;;9.30;5.70;;;9.50;99.90;;;;;;5133385;27;20164;-56
2022/10/10 00:38:14;;;;;;;16.90;4.20;;;9.50;99.90;;;;;;5133651;27;20171;-56
2022/10/10 00:40:53;;;;;;;7.80;4.60;;;9.50;99.90;;;;;;5133335;27;20178;-55
2022/10/10 00:43:19;;;;;;;7.00;4.53;;;9.40;99.90;;;;;;5133477;27;20555;-55
2022/10/10 00:45:46;;;;;;;7.72;4.60;;;9.40;99.90;;;;;;5133901;27;20615;-57
2022/10/10 00:48:17;;;;;;;6.68;4.40;;;9.40;99.90;;;;;;5133083;27;20203;-57
2022/10/10 00:50:48;;;;;;;5.95;3.53;;;9.40;99.90;;;;;;5133302;27;20160;-55
2022/10/10 00:53:18;;;;;;;5.40;3.83;;;9.40;99.90;;;;;;5133436;27;20636;-56
2022/10/10 00:55:44;;;;;;;5.50;3.70;;;9.40;99.90;;;;;;5133271;27;20242;-56
2022/10/10 00:58:11;;;;;;;6.43;4.25;;;9.40;99.90;;;;;;5133033;27;20576;-56
2022/10/10 01:00:36;;;;;;;5.65;3.75;;;9.30;99.90;;;;;;5133028;27;20186;-56
2022/10/10 01:03:02;;;;;;;6.68;4.30;;;9.30;99.90;;;;;;5132973;27;20528;-56
2022/10/10 01:05:28;;;;;;;7.20;4.30;;;9.30;99.90;;;;;;5133253;27;20189;-56
2022/10/10 01:07:54;;;;;;;10.95;4.07;;;9.30;99.90;;;;;;5132781;27;20227;-56
2022/10/10 01:10:21;;;;;;;11.10;3.88;;;9.30;99.90;;;;;;5132828;27;20252;-56
2022/10/10 01:13:02;;;;;;;7.07;4.03;;;9.30;99.90;;;;;;5133138;27;20254;-56
2022/10/10 01:15:48;;;;;;;7.18;3.40;;;9.30;99.90;;;;;;5132833;27;20216;-56
2022/10/10 01:18:41;;;;;;;6.25;4.00;;;9.30;99.90;;;;;;5133432;27;20492;-56
2022/10/10 01:21:10;;;;;;;5.20;3.70;;;9.30;99.90;;;;;;5133048;27;20625;-55
2022/10/10 01:23:47;;;;;;;7.07;4.00;;;9.30;99.90;;;;;;5132671;27;20171;-55
2022/10/10 01:26:31;;;;;;;7.35;3.72;;;9.20;99.90;;;;;;5133023;27;20242;-55
2022/10/10 01:29:06;;;;;;;5.97;4.28;;;9.30;99.90;;;;;;5132879;27;20301;-55
2022/10/10 01:31:41;;;;;;;4.18;3.70;;;9.20;99.90;;;;;;5132714;27;20163;-55
2022/10/10 01:34:25;;;;;;;4.72;4.05;;;9.30;99.90;;;;;;5136903;27;20171;-55
2022/10/10 01:37:11;;;;;;;7.47;4.35;;;9.20;99.90;;;;;;5136941;27;20250;-56
2022/10/10 01:39:55;;;;;;;7.10;4.05;;;9.20;99.90;;;;;;5136831;27;20170;-56
2022/10/10 01:42:37;;;;;;;5.15;4.32;;;9.20;99.90;;;;;;5136701;27;20159;-55
2022/10/10 01:45:04;;;;;;;4.45;3.85;;;9.20;99.90;;;;;;5136736;27;20186;-55
2022/10/10 01:47:29;;;;;;;5.70;3.72;;;9.20;99.90;;;;;;5136754;27;20671;-56
2022/10/10 01:49:58;;;;;;;9.35;4.18;;;9.20;99.90;;;;;;5136641;27;20196;-55
2022/10/10 01:52:56;;;;;;;6.35;4.00;;;9.20;99.90;;;;;;5136585;27;20164;-56
2022/10/10 01:55:40;;;;;;;4.85;3.88;;;9.20;99.90;;;;;;5136414;27;20208;-56
2022/10/10 01:58:17;;;;;;;7.43;4.63;;;9.20;99.90;;;;;;5136462;27;20708;-56
2022/10/10 02:00:56;;;;;;;5.75;4.22;;;9.20;99.90;;;;;;5135505;27;20175;-55
2022/10/10 02:03:34;;;;;;;6.13;4.28;;;9.20;99.90;;;;;;5137012;27;20528;-56
2022/10/10 02:06:14;;;;;;;6.78;3.78;;;9.20;99.90;;;;;;5136459;27;20160;-55
2022/10/10 02:08:50;;;;;;;13.30;4.93;;;9.20;99.90;;;;;;5136219;27;20200;-55
2022/10/10 02:11:16;;;;;;;6.55;4.43;;;9.20;99.90;;;;;;5136559;27;20163;-55
2022/10/10 02:13:49;;;;;;;7.18;4.43;;;9.20;99.90;;;;;;5136135;27;20632;-56
2022/10/10 02:16:20;;;;;;;4.72;3.70;;;9.20;99.90;;;;;;5136463;27;20162;-55
2022/10/10 02:18:48;;;;;;;10.27;4.22;;;9.20;99.90;;;;;;5136430;27;20167;-55
2022/10/10 02:21:15;;;;;;;6.15;3.97;;;9.20;99.90;;;;;;5136639;27;20200;-56
2022/10/10 02:23:44;;;;;;;6.63;4.47;;;9.20;99.90;;;;;;5136049;27;20573;-55
2022/10/10 02:26:14;;;;;;;9.18;4.05;;;9.20;99.90;;;;;;5135929;27;20184;-56
2022/10/10 02:28:47;;;;;;;4.70;3.92;;;9.20;99.90;;;;;;5135911;27;20258;-55
2022/10/10 02:31:18;;;;;;;8.70;4.10;;;9.10;99.90;;;;;;5134925;27;20568;-56
2022/10/10 02:33:52;;;;;;;6.68;4.25;;;9.10;99.90;;;;;;5136083;27;20168;-55
2022/10/10 02:36:20;;;;;;;6.82;3.88;;;9.10;99.90;;;;;;5135756;27;20156;-56
2022/10/10 02:38:47;;;;;;;5.57;3.42;;;9.10;99.90;;;;;;5136054;27;20250;-56
2022/10/10 02:41:17;;;;;;;7.95;4.30;;;9.10;99.90;;;;;;5136079;27;20644;-56
2022/10/10 02:43:43;;;;;;;5.00;4.50;;;9.10;99.90;;;;;;5136086;27;20535;-56
2022/10/10 02:46:12;;;;;;;7.18;3.92;;;9.10;99.90;;;;;;5135610;27;20254;-56
2022/10/10 02:48:38;;;;;;;5.97;4.32;;;9.10;99.90;;;;;;5135673;27;20208;-56
2022/10/10 02:51:04;;;;;;;7.93;4.13;;;9.10;99.90;;;;;;5135364;27;20159;-56
2022/10/10 02:53:30;;;;;;;5.40;3.85;;;9.10;99.90;;;;;;5135380;27;20160;-55
2022/10/10 02:55:55;;;;;;;7.70;4.10;;;9.10;99.90;;;;;;5135188;27;20767;-56
2022/10/10 02:58:21;;;;;;;5.50;3.78;;;9.10;99.90;;;;;;5135308;27;20171;-56
2022/10/10 03:00:47;;;;;;;13.57;5.40;;;9.10;99.90;;;;;;5135288;27;20574;-55
2022/10/10 03:03:12;;;;;;;11.10;4.35;;;9.10;99.90;;;;;;5135673;27;20584;-55
2022/10/10 03:05:38;;;;;;;5.78;4.22;;;9.10;99.90;;;;;;5135156;27;20251;-56
2022/10/10 03:08:03;;;;;;;7.00;3.88;;;9.10;99.90;;;;;;5135051;27;20192;-55
2022/10/10 03:10:29;;;;;;;6.10;3.60;;;9.10;99.90;;;;;;5135018;27;20172;-55
2022/10/10 03:12:54;;;;;;;13.35;3.80;;;9.10;99.90;;;;;;5134559;27;20168;-55
2022/10/10 03:15:20;;;;;;;7.93;4.75;;;9.10;99.90;;;;;;5134924;27;20375;-55
2022/10/10 03:17:45;;;;;;;6.40;4.65;;;9.00;99.90;;;;;;5135272;27;20192;-55
2022/10/10 03:20:11;;;;;;;11.15;5.63;;;9.10;99.90;;;;;;5134919;27;20168;-55
2022/10/10 03:22:36;;;;;;;13.15;6.20;;;9.00;99.90;;;;;;5134842;27;20160;-55
2022/10/10 03:25:03;;;;;;;12.50;6.15;;;9.00;99.90;;;;;;5134924;27;20168;-55
2022/10/10 03:27:28;;;;;;;11.30;6.05;;;9.00;99.90;;;;;;5134689;27;20192;-55
2022/10/10 03:29:54;;;;;;;13.25;7.53;;;9.00;99.90;;;;;;5133419;27;20264;-55
2022/10/10 03:32:20;;;;;;;13.48;7.13;;;9.00;99.90;;;;;;5134594;27;20167;-55
2022/10/10 03:34:45;;;;;;;15.05;7.65;;;9.00;99.90;;;;;;5135159;27;20172;-55
2022/10/10 03:37:11;;;;;;;16.02;8.95;;;9.00;99.90;;;;;;5134576;27;20523;-55
2022/10/10 03:39:37;;;;;;;21.23;9.25;;;9.00;99.90;;;;;;5134583;27;20176;-56
2022/10/10 03:42:03;;;;;;;16.23;8.20;;;9.00;99.90;;;;;;5134498;27;20251;-55
2022/10/10 03:44:29;;;;;;;10.25;6.72;;;9.00;99.90;;;;;;5134434;27;20164;-57
2022/10/10 03:46:54;;;;;;;11.55;5.45;;;9.00;99.90;;;;;;5134328;27;20168;-56
2022/10/10 03:49:20;;;;;;;7.25;4.90;;;8.90;99.90;;;;;;5134304;27;20195;-55
2022/10/10 03:51:45;;;;;;;8.15;4.63;;;9.00;99.90;;;;;;5134617;27;20199;-55
2022/10/10 03:54:11;;;;;;;5.93;4.50;;;9.00;99.90;;;;;;5134429;27;20220;-56
2022/10/10 03:56:36;;;;;;;5.60;3.90;;;9.00;99.90;;;;;;5133446;27;20211;-56
2022/10/10 03:59:02;;;;;;;6.65;3.72;;;9.00;99.90;;;;;;5134141;27;20269;-56
2022/10/10 04:01:29;;;;;;;5.93;3.88;;;9.00;99.90;;;;;;5134058;27;20175;-56
2022/10/10 04:03:55;;;;;;;7.65;4.10;;;8.90;99.90;;;;;;5134017;27;20164;-56
2022/10/10 04:06:20;;;;;;;7.53;4.05;;;9.00;99.90;;;;;;5133932;27;20648;-56
2022/10/10 04:08:46;;;;;;;5.45;4.05;;;8.90;99.90;;;;;;5134149;27;20207;-56
2022/10/10 04:11:12;;;;;;;5.43;4.35;;;8.90;99.90;;;;;;5134182;27;20168;-56
2022/10/10 04:13:38;;;;;;;5.93;3.75;;;8.90;99.90;;;;;;5133842;27;20225;-56
2022/10/10 04:16:04;;;;;;;4.78;3.42;;;8.90;99.90;;;;;;5133743;27;20188;-56
2022/10/10 04:18:30;;;;;;;8.35;4.00;;;8.90;99.90;;;;;;5133941;27;20175;-56
2022/10/10 04:20:55;;;;;;;8.45;3.83;;;8.90;99.90;;;;;;5133604;27;20164;-56
2022/10/10 04:23:21;;;;;;;5.97;3.85;;;8.90;99.90;;;;;;5133654;27;20637;-56
2022/10/10 04:25:50;;;;;;;7.18;3.83;;;8.90;99.90;;;;;;5133594;27;20512;-55
2022/10/10 04:28:16;;;;;;;7.97;4.00;;;8.90;99.90;;;;;;5134069;27;20537;-56
2022/10/10 04:30:42;;;;;;;6.70;4.00;;;8.90;99.90;;;;;;5133812;27;20213;-56
2022/10/10 04:33:07;;;;;;;6.25;3.90;;;8.90;99.90;;;;;;5133444;27;20221;-56
2022/10/10 04:35:33;;;;;;;5.68;4.07;;;8.90;99.90;;;;;;5133659;27;20167;-56
2022/10/10 04:37:59;;;;;;;7.55;4.28;;;8.90;99.90;;;;;;5133616;27;20206;-56
2022/10/10 04:40:24;;;;;;;7.15;3.88;;;8.90;99.90;;;;;;5133279;27;20164;-56
2022/10/10 04:42:50;;;;;;;5.78;3.97;;;8.90;99.90;;;;;;5133344;27;20160;-56
2022/10/10 04:45:15;;;;;;;8.13;4.35;;;8.80;99.90;;;;;;5133571;27;20168;-56
2022/10/10 04:47:41;;;;;;;9.18;4.28;;;8.80;99.90;;;;;;5133710;27;20591;-56
2022/10/10 04:50:07;;;;;;;5.70;4.25;;;8.80;99.90;;;;;;5133193;27;20176;-56
2022/10/10 04:52:32;;;;;;;10.07;5.00;;;8.80;99.90;;;;;;5133243;27;20629;-56
2022/10/10 04:54:58;;;;;;;8.27;4.20;;;8.80;99.90;;;;;;5132971;27;20224;-56
2022/10/10 04:57:23;;;;;;;9.45;5.40;;;8.70;99.90;;;;;;5133001;27;20176;-56
2022/10/10 04:59:49;;;;;;;10.63;5.07;;;8.70;99.90;;;;;;5133025;27;20169;-56
2022/10/10 05:02:14;;;;;;;11.07;5.47;;;8.70;99.90;;;;;;5133421;27;20160;-56
2022/10/10 05:04:40;;;;;;;6.55;4.72;;;8.70;99.90;;;;;;5131660;27;20264;-56
2022/10/10 05:07:06;;;;;;;7.68;4.18;;;8.70;99.90;;;;;;5131799;27;20171;-56
2022/10/10 05:09:32;;;;;;;8.50;5.25;;;8.70;99.90;;;;;;5132922;27;20184;-56
2022/10/10 05:11:58;;;;;;;12.38;6.50;;;8.70;99.90;;;;;;5133014;27;20220;-56
2022/10/10 05:14:24;;;;;;;18.95;9.13;;;8.70;99.90;;;;;;5132650;27;20168;-56
2022/10/10 05:16:50;;;;;;;15.70;8.63;;;8.70;99.90;;;;;;5132683;27;20156;-56
2022/10/10 05:19:15;;;;;;;10.98;6.72;;;8.70;99.90;;;;;;5133202;27;20167;-56
2022/10/10 05:21:41;;;;;;;5.72;4.55;;;8.60;99.90;;;;;;5133283;27;20668;-55
2022/10/10 05:24:06;;;;;;;7.60;3.65;;;8.60;99.90;;;;;;5132680;27;20250;-56
2022/10/10 05:26:32;;;;;;;8.15;4.10;;;8.60;99.90;;;;;;5132587;27;20164;-56
2022/10/10 05:28:58;;;;;;;4.55;3.72;;;8.60;99.90;;;;;;5132755;27;20200;-56
2022/10/10 05:31:24;;;;;;;5.50;4.22;;;8.60;99.90;;;;;;5132876;27;20522;-56
2022/10/10 05:33:49;;;;;;;19.88;10.90;;;8.60;99.90;;;;;;5132788;27;20187;-56
2022/10/10 05:36:15;;;;;;;24.00;12.02;;;8.60;99.90;;;;;;5132900;27;20164;-55
2022/10/10 05:38:41;;;;;;;18.15;9.10;;;12.00;99.90;;;;;;5133206;27;20652;-55
2022/10/10 05:41:07;;;;;;;9.10;4.80;;;8.60;99.90;;;;;;5132476;27;20625;-55
2022/10/10 05:43:34;;;;;;;9.18;5.00;;;8.60;99.90;;;;;;5132575;27;20201;-55
2022/10/10 05:46:00;;;;;;;20.67;9.60;;;8.60;99.90;;;;;;5132800;27;20229;-56
2022/10/10 05:48:25;;;;;;;9.23;4.47;;;8.60;99.90;;;;;;5132343;27;20298;-55
2022/10/10 05:50:55;;;;;;;8.25;4.65;;;8.50;99.90;;;;;;5132539;27;20254;-55
2022/10/10 05:53:22;;;;;;;5.38;3.90;;;8.50;99.90;;;;;;5132377;27;20172;-55
2022/10/10 05:55:48;;;;;;;6.75;4.13;;;8.40;99.90;;;;;;5132204;27;20244;-55
2022/10/10 05:58:14;;;;;;;4.97;4.10;;;8.40;99.90;;;;;;5132947;27;20576;-55
2022/10/10 06:00:41;;;;;;;6.40;4.32;;;8.40;99.90;;;;;;5132405;27;20243;-55
2022/10/10 06:03:07;;;;;;;5.93;3.65;;;8.40;99.90;;;;;;5132599;27;20542;-56
2022/10/10 06:05:33;;;;;;;4.60;3.80;;;8.40;99.90;;;;;;5132266;27;20175;-55
2022/10/10 06:07:59;;;;;;;11.02;4.07;;;8.40;99.90;;;;;;5132261;27;20203;-55
2022/10/10 06:10:24;;;;;;;8.45;3.97;;;8.40;99.90;;;;;;5132280;27;20164;-56
2022/10/10 06:12:50;;;;;;;8.90;5.05;;;8.50;99.90;;;;;;5132207;27;20172;-55
2022/10/10 06:15:16;;;;;;;13.52;5.78;;;8.50;99.90;;;;;;5132491;27;20183;-55
2022/10/10 06:17:41;;;;;;;11.05;5.25;;;8.50;99.90;;;;;;5132589;27;20617;-55
2022/10/10 06:20:07;;;;;;;14.10;7.47;;;8.60;99.90;;;;;;5136149;27;20182;-55
2022/10/10 06:22:33;;;;;;;10.93;6.05;;;8.60;99.90;;;;;;5135995;27;20175;-56
2022/10/10 06:24:58;;;;;;;30.63;13.25;;;8.60;99.90;;;;;;5136001;27;20172;-56
2022/10/10 06:27:24;;;;;;;21.38;9.13;;;8.70;99.90;;;;;;5135889;27;20174;-56
2022/10/10 06:29:49;;;;;;;9.55;5.38;;;8.80;99.90;;;;;;5135945;27;20168;-55
2022/10/10 06:32:15;;;;;;;9.05;4.85;;;8.90;99.90;;;;;;5136117;27;20202;-55
2022/10/10 06:34:40;;;;;;;35.83;9.73;;;11.80;99.90;;;;;;5136330;27;20172;-55
2022/10/10 06:37:07;;;;;;;12.13;6.32;;;9.10;99.90;;;;;;5135965;27;20164;-55
2022/10/10 06:39:33;;;;;;;11.18;5.10;;;9.20;99.90;;;;;;5135644;27;20179;-56
2022/10/10 06:41:58;;;;;;;6.55;4.43;;;9.20;99.90;;;;;;5135683;27;20203;-56
2022/10/10 06:44:24;;;;;;;19.77;7.45;;;9.20;99.90;;;;;;5135579;27;20251;-56
2022/10/10 06:46:49;;;;;;;6.60;4.80;;;9.30;99.90;;;;;;5135516;27;20168;-55
2022/10/10 06:49:15;;;;;;;12.98;6.95;;;9.30;99.90;;;;;;5135724;27;20560;-56
2022/10/10 06:51:40;;;;;;;15.80;8.45;;;9.50;99.90;;;;;;5136025;27;20207;-55
2022/10/10 06:54:06;;;;;;;13.35;6.90;;;9.50;99.90;;;;;;5135412;27;20172;-56
2022/10/10 06:56:32;;;;;;;59.67;17.00;;;9.70;99.90;;;;;;5135226;27;20223;-56
2022/10/10 06:58:57;;;;;;;43.20;14.40;;;9.70;99.90;;;;;;5135550;27;20160;-56
2022/10/10 07:01:24;;;;;;;16.08;7.47;;;9.90;99.90;;;;;;5135291;27;20156;-55
2022/10/10 07:03:50;;;;;;;14.02;6.15;;;10.00;99.90;;;;;;5135279;27;20625;-55
2022/10/10 07:06:17;;;;;;;15.13;7.40;;;10.10;99.90;;;;;;5135358;27;20175;-55
2022/10/10 07:08:42;;;;;;;22.02;7.35;;;10.30;99.90;;;;;;5135646;27;20211;-55
2022/10/10 07:11:08;;;;;;;39.13;12.35;;;10.40;99.90;;;;;;5134958;27;20713;-55
2022/10/10 07:13:35;;;;;;;21.33;6.10;;;10.60;99.90;;;;;;5134985;27;20168;-55
2022/10/10 07:16:01;;;;;;;21.50;8.50;;;10.70;99.90;;;;;;5134982;27;20205;-55
2022/10/10 07:18:27;;;;;;;14.57;7.55;;;10.80;99.90;;;;;;5135174;27;20171;-55
2022/10/10 07:20:57;;;;;;;14.80;5.95;;;11.00;99.90;;;;;;5134854;27;20246;-56
2022/10/10 07:23:23;;;;;;;13.27;6.05;;;11.20;99.90;;;;;;5134879;27;20499;-55
2022/10/10 07:25:49;;;;;;;7.07;3.80;;;11.40;99.90;;;;;;5134826;27;20208;-55
2022/10/10 07:28:14;;;;;;;10.13;5.40;;;11.50;99.90;;;;;;5135230;27;20199;-55
2022/10/10 07:30:43;;;;;;;10.90;5.43;;;11.30;99.90;;;;;;5133994;27;20168;-52
2022/10/10 07:33:11;;;;;;;16.23;6.05;;;11.70;99.90;;;;;;5134895;27;20179;-53
2022/10/10 07:35:36;;;;;;;30.02;10.85;;;11.80;99.90;;;;;;5134494;27;20163;-55
2022/10/10 07:38:02;;;;;;;11.85;5.05;;;11.80;99.90;;;;;;5134493;27;20164;-54
2022/10/10 07:40:28;;;;;;;24.05;9.73;;;11.80;99.90;;;;;;5134431;27;20243;-54
2022/10/10 07:42:53;;;;;;;22.35;7.40;;;11.80;99.90;;;;;;5134395;27;20188;-54
2022/10/10 07:45:19;;;;;;;10.38;6.25;;;11.80;99.90;;;;;;5134637;27;20175;-53
2022/10/10 07:47:45;;;;;;;17.63;7.15;;;11.80;99.90;;;;;;5134610;27;20197;-54
2022/10/10 07:50:11;;;;;;;16.23;7.90;;;11.90;99.90;;;;;;5134654;27;20170;-54
2022/10/10 07:52:37;;;;;;;13.52;7.93;;;12.00;99.90;;;;;;5134269;27;20174;-54
2022/10/10 07:55:04;;;;;;;16.77;8.25;;;12.00;99.90;;;;;;5134100;27;20220;-53
2022/10/10 07:57:33;;;;;;;11.27;6.15;;;11.90;99.90;;;;;;5134159;27;20172;-54
2022/10/10 08:00:00;;;;;;;10.25;6.57;;;11.90;99.90;;;;;;5134288;27;20175;-55
2022/10/10 08:02:26;;;;;;;10.85;5.93;;;11.90;99.90;;;;;;5134319;27;20175;-54
2022/10/10 08:04:51;;;;;;;11.88;4.90;;;11.90;99.90;;;;;;5134024;27;20168;-53
2022/10/10 08:07:18;;;;;;;9.32;5.60;;;11.80;99.90;;;;;;5133843;27;20247;-50
2022/10/10 08:09:44;;;;;;;12.55;6.00;;;11.70;99.90;;;;;;5134504;27;20195;-52
2022/10/10 08:12:09;;;;;;;16.02;7.53;;;11.70;99.90;;;;;;5133821;27;20624;-52
2022/10/10 08:14:35;;;;;;;14.85;8.32;;;11.70;99.90;;;;;;5134003;27;20272;-53
2022/10/10 08:17:00;;;;;;;17.27;7.88;;;11.70;99.90;;;;;;5133794;27;20168;-53
2022/10/10 08:19:26;;;;;;;10.40;5.55;;;11.70;99.90;;;;;;5133775;27;20517;-53
2022/10/10 08:21:52;;;;;;;10.10;6.53;;;11.70;99.90;;;;;;5133602;27;20164;-50
2022/10/10 08:24:17;;;;;;;9.95;6.60;;;11.80;99.90;;;;;;5133658;27;20172;-50
2022/10/10 08:26:43;;;;;;;6.97;5.35;;;12.00;99.90;;;;;;5133938;27;20167;-50
2022/10/10 08:29:08;;;;;;;13.20;7.57;;;12.20;99.90;;;;;;5133433;27;20199;-52
2022/10/10 08:31:34;;;;;;;10.38;6.32;;;12.30;99.90;;;;;;5133467;27;21532;-51
2022/10/10 08:33:59;;;;;;;11.48;6.22;;;12.50;99.90;;;;;;5133424;27;20527;-53
2022/10/10 08:36:26;;;;;;;9.25;5.28;;;12.70;99.90;;;;;;5133072;27;20175;-52
2022/10/10 08:38:57;;;;;;;12.10;5.95;;;12.90;99.90;;;;;;5132490;27;20202;-55
2022/10/10 08:41:47;;;;;;;11.85;6.10;;;13.10;99.90;;;;;;5132476;27;20652;-56
2022/10/10 08:44:31;;;;;;;4.70;3.53;;;13.30;99.90;;;;;;5133206;27;20164;-54
2022/10/10 08:47:09;;;;;;;6.80;3.88;;;13.50;99.90;;;;;;5133125;27;20255;-57
2022/10/10 08:49:44;;;;;;;6.85;3.53;;;13.80;99.90;;;;;;5133027;27;20236;-61
2022/10/10 08:52:12;;;;;;;9.63;3.58;;;13.90;99.90;;;;;;5133369;27;20172;-68
2022/10/10 08:54:41;;;;;;;8.43;3.33;;;14.10;99.90;;;;;;5132744;27;20163;-54
2022/10/10 08:57:25;;;;;;;3.33;2.95;;;14.20;99.90;;;;;;5132810;27;20288;-53
2022/10/10 08:59:55;;;;;;;6.82;2.92;;;14.40;99.90;;;;;;5132892;27;20209;-50
2022/10/10 09:02:44;;;;;;;8.13;3.25;;;14.50;99.90;;;;;;5132892;27;20164;-57
2022/10/10 09:05:16;;;;;;;5.50;3.13;;;14.60;99.90;;;;;;5132905;27;20175;-53
2022/10/10 09:08:17;;;;;;;10.75;3.45;;;14.80;99.90;;;;;;5133065;27;20200;-55
2022/10/10 09:10:53;;;;;;;7.90;2.97;;;14.80;99.90;;;;;;5110207;27;20175;-53
2022/10/10 09:13:27;;;;;;;6.10;2.83;;;15.00;99.90;;;;;;5132558;27;20167;-51
2022/10/10 09:16:15;;;;;;;5.65;3.30;;;15.20;99.90;;;;;;5132745;27;20572;-51
2022/10/10 09:18:58;;;;;;;7.07;3.42;;;15.30;99.90;;;;;;5132589;27;20251;-51
2022/10/10 09:21:30;;;;;;;9.45;4.43;;;15.50;99.90;;;;;;5132868;27;20213;-50
2022/10/10 09:24:18;;;;;;;7.97;3.85;;;15.60;99.90;;;;;;5132822;27;20167;-51
2022/10/10 09:27:01;;;;;;;5.30;2.85;;;15.80;99.90;;;;;;5132925;27;20243;-53
2022/10/10 09:29:48;;;;;;;12.57;3.38;;;15.90;99.90;;;;;;5132652;27;20235;-53
2022/10/10 09:32:20;;;;;;;6.93;3.05;;;16.10;99.90;;;;;;5132849;27;20245;-53
2022/10/10 09:34:59;;;;;;;9.55;4.53;;;16.40;99.90;;;;;;5123410;27;20167;-52
2022/10/10 09:37:33;;;;;;;11.32;3.50;;;16.40;99.90;;;;;;5112221;28;20263;-53
2022/10/10 09:40:12;;;;;;;36.78;21.80;;;16.50;99.90;;;;;;5111721;28;20224;-52
2022/10/10 09:42:38;;;;;;;21.08;12.40;;;16.70;99.90;;;;;;5111886;28;20164;-52
2022/10/10 09:45:47;;;;;;;7.45;4.18;;;16.90;99.90;;;;;;5111609;28;20733;-52
2022/10/10 09:48:13;;;;;;;27.80;14.43;;;17.10;99.90;;;;;;5069099;28;20197;-53
2022/10/10 09:50:40;;;;;;;26.30;12.23;;;17.10;99.90;;;;;;5069065;28;20178;-53
2022/10/10 09:53:05;;;;;;;12.85;4.72;;;16.90;99.90;;;;;;5094083;27;20232;-53
2022/10/10 09:55:36;;;;;;;11.77;3.75;;;16.80;99.90;;;;;;5124624;27;20669;-53
2022/10/10 09:58:36;;;;;;;12.95;4.00;;;16.60;99.90;;;;;;5115817;28;20219;-53
2022/10/10 10:01:12;;;;;;;11.05;4.35;;;16.50;99.90;;;;;;5115538;28;20297;-53
2022/10/10 10:03:38;;;;;;;8.63;3.50;;;16.40;99.90;;;;;;5115660;28;20164;-53
2022/10/10 10:06:04;;;;;;;10.77;4.18;;;16.40;99.90;;;;;;5115380;27;20172;-53
2022/10/10 10:08:32;;;;;;;10.70;3.88;;;16.40;99.90;;;;;;5115266;28;20208;-53
2022/10/10 10:10:59;;;;;;;9.40;3.40;;;16.40;99.90;;;;;;5115646;28;20160;-52
2022/10/10 10:13:29;;;;;;;9.27;4.40;;;16.30;99.90;;;;;;5115441;28;20180;-53
2022/10/10 10:16:13;;;;;;;11.15;2.60;;;16.50;99.90;;;;;;5115754;28;20176;-52
2022/10/10 10:18:46;;;;;;;7.63;2.58;;;16.30;99.90;;;;;;5115763;28;20248;-52
2022/10/10 10:21:12;;;;;;;5.90;2.45;;;;;;;;;;5115473;28;20213;-53
2022/10/10 10:23:50;;;;;;;7.40;2.50;;;16.30;99.90;;;;;;5115099;28;20247;-53
2022/10/10 10:26:26;;;;;;;5.18;2.58;;;16.50;99.90;;;;;;5115288;28;20525;-53
2022/10/10 10:28:53;;;;;;;4.72;2.53;;;16.90;99.90;;;;;;5115187;28;20215;-53
2022/10/10 10:31:43;;;;;;;5.40;2.67;;;17.20;99.90;;;;;;5114668;28;20153;-53
2022/10/10 10:34:34;;;;;;;8.95;2.80;;;17.40;99.90;;;;;;5114946;28;20524;-53
2022/10/10 10:37:28;;;;;;;7.35;2.47;;;17.60;99.90;;;;;;5115135;28;20209;-52
2022/10/10 10:40:10;;;;;;;7.97;2.85;;;17.40;99.90;;;;;;5114885;28;20161;-53
2022/10/10 10:42:58;;;;;;;9.88;2.92;;;17.20;99.90;;;;;;5114910;28;20165;-57
2022/10/10 10:45:42;;;;;;;6.15;2.30;;;17.50;99.90;;;;;;5114963;28;20194;-53
2022/10/10 10:48:36;;;;;;;5.68;2.30;;;17.50;99.90;;;;;;5114828;28;20192;-54
2022/10/10 10:51:04;;;;;;;7.57;2.45;;;17.50;99.90;;;;;;5114499;28;20165;-53
2022/10/10 10:53:47;;;;;;;5.88;2.53;;;17.70;99.90;;;;;;5114756;28;20160;-53
2022/10/10 10:56:34;;;;;;;10.40;3.42;;;17.90;99.90;;;;;;5114871;28;20212;-53
2022/10/10 10:59:37;;;;;;;9.43;2.58;;;18.20;99.90;;;;;;5114729;28;20164;-53
2022/10/10 11:02:05;;;;;;;8.18;2.33;;;18.40;99.90;;;;;;5114632;28;20645;-53
2022/10/10 11:05:15;;;;;;;8.60;2.45;;;18.40;99.90;;;;;;5114789;28;20171;-53
2022/10/10 11:07:58;;;;;;;10.45;3.40;;;18.40;99.90;;;;;;5114599;28;20181;-53
2022/10/10 11:10:56;;;;;;;7.85;2.22;;;18.30;99.90;;;;;;5114368;28;20177;-52
2022/10/10 11:13:42;;;;;;;6.65;2.63;;;18.30;99.90;;;;;;5082281;27;20184;-53
2022/10/10 11:16:21;;;;;;;9.20;2.60;;;18.60;99.90;;;;;;5114179;28;20164;-53
2022/10/10 11:19:05;;;;;;;11.40;3.47;;;18.60;99.90;;;;;;5114844;28;20164;-53
2022/10/10 11:21:36;;;;;;;6.22;2.53;;;18.50;99.90;;;;;;5113939;28;20217;-53
2022/10/10 11:24:21;;;;;;;8.02;2.67;;;18.50;99.90;;;;;;5114001;28;20169;-53
2022/10/10 11:26:52;;;;;;;7.25;2.47;;;18.50;99.90;;;;;;5114165;28;20251;-53
2022/10/10 11:29:26;;;;;;;8.38;2.58;;;18.70;99.90;;;;;;5113843;28;20620;-53
2022/10/10 11:32:13;;;;;;;14.10;2.85;;;18.50;99.90;;;;;;5114061;28;20176;-53
2022/10/10 11:35:05;;;;;;;12.45;3.15;;;18.40;99.90;;;;;;5113332;28;20161;-53
2022/10/10 11:37:36;;;;;;;10.68;2.90;;;18.70;99.90;;;;;;5113954;28;20711;-53
2022/10/10 11:40:06;;;;;;;8.60;2.25;;;18.50;99.90;;;;;;5112730;28;20629;-53
2022/10/10 11:42:41;;;;;;;8.23;2.50;;;18.60;99.90;;;;;;5113813;28;20165;-53
2022/10/10 11:45:18;;;;;;;12.45;2.75;;;18.60;99.90;;;;;;5113642;28;20164;-53
2022/10/10 11:48:00;;;;;;;8.13;2.22;;;18.50;99.90;;;;;;5113959;28;20325;-53
2022/10/10 11:50:29;;;;;;;142.90;69.13;;;18.40;99.90;;;;;;5112455;28;20225;-53
2022/10/10 11:53:05;;;;;;;41.42;16.63;;;18.50;99.90;;;;;;5113703;28;20169;-53
2022/10/10 11:56:02;;;;;;;16.65;3.30;;;18.50;99.90;;;;;;5113497;28;20200;-53
2022/10/10 11:58:32;;;;;;;17.63;5.95;;;18.40;99.90;;;;;;5084620;28;20192;-53
2022/10/10 12:01:29;;;;;;;7.68;3.35;;;18.50;99.90;;;;;;5113442;28;20179;-53
2022/10/10 12:03:58;;;;;;;21.00;4.53;;;18.50;99.90;;;;;;5113159;28;20521;-52
2022/10/10 12:06:36;;;;;;;13.35;3.90;;;18.50;99.90;;;;;;5113213;28;20176;-53
2022/10/10 12:09:19;;;;;;;11.02;3.35;;;18.50;99.90;;;;;;5113230;28;20204;-53
2022/10/10 12:12:06;;;;;;;12.68;2.97;;;18.60;99.90;;;;;;5113272;28;20200;-53
2022/10/10 12:14:36;;;;;;;14.35;4.93;;;18.60;99.90;;;;;;5113107;28;20183;-52
2022/10/10 12:17:02;;;;;;;13.57;3.20;;;18.70;99.90;;;;;;5112866;28;20233;-53
2022/10/10 12:19:28;;;;;;;15.20;5.97;;;18.60;99.90;;;;;;5112897;28;20570;-52
2022/10/10 12:22:03;;;;;;;9.18;3.78;;;18.70;99.90;;;;;;5113244;28;20173;-53
2022/10/10 12:24:31;;;;;;;9.75;3.30;;;18.80;99.90;;;;;;5113323;28;20251;-53
2022/10/10 12:26:57;;;;;;;8.13;2.13;;;18.80;99.90;;;;;;5112673;28;20192;-53
2022/10/10 12:29:46;;;;;;;15.90;2.70;;;19.00;99.90;;;;;;5112261;28;20685;-53
2022/10/10 12:32:16;;;;;;;10.73;2.47;;;19.20;99.90;;;;;;5113181;28;20168;-53
2022/10/10 12:34:48;;;;;;;9.73;3.00;;;19.20;99.90;;;;;;5113476;28;20210;-52
2022/10/10 12:37:56;;;;;;;9.30;2.50;;;19.20;99.90;;;;;;5113440;28;20199;-53
2022/10/10 12:40:22;;;;;;;5.00;2.65;;;19.10;99.90;;;;;;5112834;28;20181;-53
2022/10/10 12:42:47;;;;;;;11.75;2.40;;;19.10;99.90;;;;;;5112300;28;20164;-53
2022/10/10 12:45:28;;;;;;;6.45;2.72;;;19.20;99.90;;;;;;5112063;28;20533;-53
2022/10/10 12:47:56;;;;;;;11.85;2.60;;;19.20;99.90;;;;;;5111774;28;20199;-53
2022/10/10 12:50:27;;;;;;;8.68;2.58;;;19.20;99.90;;;;;;5112519;28;20561;-53
2022/10/10 12:53:02;;;;;;;10.73;2.60;;;19.10;99.90;;;;;;5112769;28;20583;-53
2022/10/10 12:55:31;;;;;;;14.10;2.83;;;19.20;99.90;;;;;;5112194;28;20652;-53
2022/10/10 12:58:01;;;;;;;11.35;2.55;;;19.10;99.90;;;;;;5112576;28;20173;-53
2022/10/10 13:00:38;;;;;;;20.90;3.08;;;19.20;99.90;;;;;;5112411;28;20172;-53
2022/10/10 13:03:20;;;;;;;13.35;3.22;;;19.30;99.90;;;;;;5112328;28;20170;-53
2022/10/10 13:05:48;;;;;;;7.72;2.60;;;19.40;99.90;;;;;;5112226;28;20632;-53
2022/10/10 13:08:23;;;;;;;8.02;2.63;;;19.40;99.90;;;;;;5112176;28;20325;-53